createdAt,value
2018-05-26T00:01:46.095Z,99.90
2018-05-26T00:04:14.967Z,99.90
2018-05-26T00:06:43.863Z,99.90
2018-05-26T00:09:13.866Z,99.90
2018-05-26T00:11:42.772Z,99.90
2018-05-26T00:14:12.408Z,99.90
2018-05-26T00:16:41.287Z,99.90
2018-05-26T00:19:10.185Z,99.90
2018-05-26T00:21:39.091Z,99.90
2018-05-26T00:24:07.987Z,99.90
2018-05-26T00:26:37.717Z,99.90
2018-05-26T00:29:06.614Z,99.90
2018-05-26T00:31:36.251Z,99.90
2018-05-26T00:34:05.148Z,99.90
2018-05-26T00:39:04.460Z,99.90
2018-05-26T00:41:33.363Z,99.90
2018-05-26T00:44:02.241Z,99.90
2018-05-26T00:46:31.129Z,99.90
2018-05-26T00:48:59.996Z,99.90
2018-05-26T00:51:28.867Z,99.90
2018-05-26T00:53:58.831Z,99.90
2018-05-26T00:56:27.703Z,99.90
2018-05-26T00:58:56.569Z,99.90
2018-05-26T01:01:25.467Z,99.90
2018-05-26T01:03:55.107Z,99.90
2018-05-26T01:06:24.013Z,99.90
2018-05-26T01:08:52.896Z,99.90
2018-05-26T01:11:21.772Z,99.90
2018-05-26T01:13:50.665Z,99.90
2018-05-26T01:16:20.303Z,99.90
2018-05-26T01:18:49.199Z,99.90
2018-05-26T01:21:18.072Z,99.90
2018-05-26T01:23:46.963Z,99.90
2018-05-26T01:26:15.836Z,99.90
2018-05-26T01:28:44.758Z,99.90
2018-05-26T01:31:13.644Z,99.90
2018-05-26T01:33:42.512Z,99.90
2018-05-26T01:36:11.434Z,99.90
2018-05-26T01:38:40.311Z,99.90
2018-05-26T01:41:09.183Z,99.90
2018-05-26T01:43:38.071Z,99.90
2018-05-26T01:46:07.726Z,99.90
2018-05-26T01:48:36.614Z,99.90
2018-05-26T01:51:05.503Z,99.90
2018-05-26T01:53:34.363Z,99.90
2018-05-26T01:56:03.224Z,99.90
2018-05-26T01:58:32.115Z,99.90
2018-05-26T02:01:01.004Z,99.90
2018-05-26T02:03:29.888Z,99.90
2018-05-26T02:05:59.550Z,99.90
2018-05-26T02:08:28.447Z,99.90
2018-05-26T02:10:57.334Z,99.90
2018-05-26T02:13:27.006Z,99.90
2018-05-26T02:15:55.876Z,99.90
2018-05-26T02:18:24.740Z,99.90
2018-05-26T02:20:53.651Z,99.90
2018-05-26T02:23:23.283Z,99.90
2018-05-26T02:25:52.157Z,99.90
2018-05-26T02:28:21.045Z,99.90
2018-05-26T02:30:49.911Z,99.90
2018-05-26T02:33:18.796Z,99.90
2018-05-26T02:35:47.703Z,99.90
2018-05-26T02:38:16.567Z,99.90
2018-05-26T02:40:45.435Z,99.90
2018-05-26T02:43:14.344Z,99.90
2018-05-26T02:45:43.979Z,99.90
2018-05-26T02:48:12.845Z,99.90
2018-05-26T02:50:41.736Z,99.90
2018-05-26T02:53:10.604Z,99.90
2018-05-26T02:55:39.463Z,99.90
2018-05-26T02:58:08.384Z,99.90
2018-05-26T03:00:37.251Z,99.90
2018-05-26T03:03:06.127Z,99.90
2018-05-26T03:05:40.440Z,99.90
2018-05-26T03:08:14.888Z,99.90
2018-05-26T03:10:49.609Z,99.90
2018-05-26T03:13:23.975Z,99.90
2018-05-26T03:19:07.900Z,99.90
2018-05-26T03:21:37.542Z,99.90
2018-05-26T03:24:06.429Z,99.90
2018-05-26T03:26:35.515Z,99.90
2018-05-26T03:29:04.405Z,99.90
2018-05-26T03:31:33.277Z,99.90
2018-05-26T03:34:02.164Z,99.90
2018-05-26T03:36:31.798Z,99.90
2018-05-26T03:39:00.722Z,99.90
2018-05-26T03:41:29.588Z,99.90
2018-05-26T03:43:58.458Z,99.90
2018-05-26T03:46:27.364Z,99.90
2018-05-26T03:48:57.011Z,99.90
2018-05-26T03:51:25.875Z,99.90
2018-05-26T03:53:54.764Z,99.90
2018-05-26T03:56:41.463Z,99.90
2018-05-26T03:59:18.162Z,99.90
2018-05-26T04:01:47.034Z,99.90
2018-05-26T04:04:15.951Z,99.90
2018-05-26T04:06:44.823Z,99.90
2018-05-26T04:09:13.692Z,99.90
2018-05-26T04:11:42.584Z,99.90
2018-05-26T04:14:11.600Z,99.90
2018-05-26T04:16:41.293Z,99.90
2018-05-26T04:19:10.136Z,99.90
2018-05-26T04:21:39.031Z,99.90
2018-05-26T04:24:07.900Z,98.90
2018-05-26T04:26:36.799Z,97.40
2018-05-26T04:29:06.436Z,95.10
2018-05-26T04:31:35.327Z,95.00
2018-05-26T04:34:04.222Z,94.30
2018-05-26T04:36:33.855Z,92.00
2018-05-26T04:39:02.805Z,91.80
2018-05-26T04:41:31.683Z,89.10
2018-05-26T04:44:01.321Z,82.30
2018-05-26T04:46:30.978Z,80.70
2018-05-26T04:48:59.867Z,80.70
2018-05-26T04:51:28.764Z,79.20
2018-05-26T04:53:58.431Z,77.10
2018-05-26T04:56:27.307Z,77.00
2018-05-26T04:58:56.217Z,76.60
2018-05-26T05:01:25.092Z,76.00
2018-05-26T05:03:53.986Z,75.80
2018-05-26T05:06:22.911Z,75.10
2018-05-26T05:08:51.824Z,75.10
2018-05-26T05:11:20.700Z,74.70
2018-05-26T05:13:49.590Z,75.50
2018-05-26T05:16:18.460Z,75.70
2018-05-26T05:18:47.349Z,75.60
2018-05-26T05:21:16.999Z,72.00
2018-05-26T05:23:45.899Z,72.00
2018-05-26T05:26:14.799Z,71.60
2018-05-26T05:28:44.436Z,69.80
2018-05-26T05:31:13.311Z,69.90
2018-05-26T05:33:42.209Z,70.00
2018-05-26T05:36:11.083Z,68.30
2018-05-26T05:38:39.975Z,70.30
2018-05-26T05:41:08.847Z,67.40
2018-05-26T05:43:37.739Z,66.70
2018-05-26T05:46:07.378Z,67.00
2018-05-26T05:48:36.253Z,66.90
2018-05-26T05:51:05.161Z,66.40
2018-05-26T05:53:34.031Z,65.70
2018-05-26T05:56:02.939Z,65.20
2018-05-26T05:58:31.808Z,64.30
2018-05-26T06:01:01.448Z,67.80
2018-05-26T06:03:30.340Z,67.70
2018-05-26T06:05:59.271Z,63.80
2018-05-26T06:08:28.876Z,64.90
2018-05-26T06:10:57.768Z,64.90
2018-05-26T06:13:26.660Z,64.40
2018-05-26T06:15:55.530Z,63.40
2018-05-26T06:18:24.427Z,61.90
2018-05-26T06:20:54.072Z,63.00
2018-05-26T06:23:22.967Z,63.00
2018-05-26T06:25:51.911Z,60.40
2018-05-26T06:28:20.802Z,60.00
2018-05-26T06:30:49.723Z,58.80
2018-05-26T06:33:19.363Z,58.00
2018-05-26T06:35:48.275Z,58.00
2018-05-26T06:38:17.150Z,59.70
2018-05-26T06:40:46.052Z,57.60
2018-05-26T06:43:15.688Z,56.90
2018-05-26T06:45:44.564Z,56.90
2018-05-26T06:48:13.464Z,57.90
2018-05-26T06:50:42.386Z,58.60
2018-05-26T06:53:11.303Z,58.20
2018-05-26T06:55:40.176Z,57.80
2018-05-26T06:58:09.067Z,57.00
2018-05-26T07:00:37.969Z,56.00
2018-05-26T07:03:07.603Z,56.70
2018-05-26T07:05:36.482Z,56.70
2018-05-26T07:08:05.408Z,55.40
2018-05-26T07:10:35.039Z,57.00
2018-05-26T07:13:03.935Z,57.00
2018-05-26T07:15:32.825Z,54.80
2018-05-26T07:18:01.702Z,56.90
2018-05-26T07:20:30.620Z,57.40
2018-05-26T07:22:59.517Z,56.80
2018-05-26T07:25:28.415Z,57.50
2018-05-26T07:27:57.384Z,56.20
2018-05-26T07:30:26.251Z,55.50
2018-05-26T07:32:55.123Z,53.60
2018-05-26T07:35:24.020Z,51.70
2018-05-26T07:37:52.896Z,54.10
2018-05-26T07:40:21.795Z,53.10
2018-05-26T07:42:51.432Z,55.30
2018-05-26T07:45:20.326Z,55.30
2018-05-26T07:47:49.200Z,55.20
2018-05-26T07:50:18.070Z,53.80
2018-05-26T07:52:46.959Z,51.10
2018-05-26T07:55:15.910Z,52.30
2018-05-26T07:57:44.814Z,51.80
2018-05-26T08:00:13.716Z,54.50
2018-05-26T08:02:43.363Z,55.90
2018-05-26T08:05:12.259Z,56.00
2018-05-26T08:07:41.140Z,55.00
2018-05-26T08:10:10.035Z,55.30
2018-05-26T08:12:39.707Z,57.10
2018-05-26T08:15:08.583Z,57.10
2018-05-26T08:17:38.283Z,53.00
2018-05-26T08:20:07.939Z,55.30
2018-05-26T08:22:36.824Z,55.30
2018-05-26T08:25:05.727Z,55.00
2018-05-26T08:27:35.371Z,55.60
2018-05-26T08:30:04.323Z,55.60
2018-05-26T08:32:33.206Z,54.10
2018-05-26T08:35:02.187Z,53.50
2018-05-26T08:37:31.068Z,54.20
2018-05-26T08:39:59.987Z,57.50
2018-05-26T08:42:28.867Z,58.30
2018-05-26T08:44:58.519Z,54.80
2018-05-26T08:47:27.422Z,54.80
2018-05-26T08:49:56.303Z,53.80
2018-05-26T08:52:25.175Z,53.60
2018-05-26T08:54:54.128Z,54.90
2018-05-26T08:57:23.004Z,55.50
2018-05-26T08:59:51.878Z,57.20
2018-05-26T09:02:20.804Z,56.40
2018-05-26T09:04:50.444Z,55.10
2018-05-26T09:07:19.339Z,55.10
2018-05-26T09:09:48.231Z,56.00
2018-05-26T09:12:17.864Z,55.50
2018-05-26T09:14:46.779Z,55.50
2018-05-26T09:17:15.648Z,55.70
2018-05-26T09:19:44.539Z,52.80
2018-05-26T09:22:13.456Z,54.20
2018-05-26T09:24:42.339Z,55.90
2018-05-26T09:27:11.237Z,57.10
2018-05-26T09:29:40.142Z,56.90
2018-05-26T09:32:09.032Z,55.80
2018-05-26T09:34:38.711Z,57.00
2018-05-26T09:37:07.583Z,57.00
2018-05-26T09:39:37.227Z,58.70
2018-05-26T09:42:06.120Z,58.60
2018-05-26T09:44:35.001Z,60.10
2018-05-26T09:47:03.871Z,58.00
2018-05-26T09:49:32.785Z,58.90
2018-05-26T09:52:02.428Z,59.90
2018-05-26T09:54:31.291Z,59.80
2018-05-26T09:57:00.180Z,60.20
2018-05-26T09:59:29.055Z,62.70
2018-05-26T10:01:57.944Z,64.50
2018-05-26T10:04:26.861Z,64.10
2018-05-26T10:06:56.492Z,61.40
2018-05-26T10:09:25.371Z,61.20
2018-05-26T10:11:54.268Z,63.50
2018-05-26T10:14:23.148Z,63.80
2018-05-26T10:16:52.012Z,63.50
2018-05-26T10:19:20.915Z,65.50
2018-05-26T10:21:50.592Z,62.00
2018-05-26T10:24:19.474Z,61.90
2018-05-26T10:26:48.343Z,60.80
2018-05-26T10:29:17.256Z,63.10
2018-05-26T10:31:46.119Z,61.80
2018-05-26T10:34:15.795Z,61.50
2018-05-26T10:36:45.472Z,66.40
2018-05-26T10:39:14.359Z,66.40
2018-05-26T10:41:43.276Z,62.70
2018-05-26T10:44:12.153Z,59.40
2018-05-26T10:46:41.052Z,60.50
2018-05-26T10:49:09.971Z,60.50
2018-05-26T10:51:39.610Z,60.30
2018-05-26T10:54:08.506Z,60.30
2018-05-26T10:56:37.379Z,60.10
2018-05-26T10:59:06.283Z,60.40
2018-05-26T11:01:35.932Z,63.50
2018-05-26T11:04:04.810Z,63.50
2018-05-26T11:06:48.650Z,60.30
2018-05-26T11:09:17.530Z,64.90
2018-05-26T11:11:46.419Z,61.40
2018-05-26T11:14:15.288Z,61.00
2018-05-26T11:16:44.196Z,59.10
2018-05-26T11:19:13.068Z,61.60
2018-05-26T11:21:41.963Z,63.00
2018-05-26T11:24:10.975Z,59.80
2018-05-26T11:26:39.743Z,59.10
2018-05-26T11:29:08.640Z,60.80
2018-05-26T11:31:38.340Z,61.10
2018-05-26T11:34:07.988Z,64.00
2018-05-26T11:36:37.239Z,64.00
2018-05-26T11:39:06.168Z,58.00
2018-05-26T11:41:35.046Z,59.90
2018-05-26T11:44:03.956Z,62.60
2018-05-26T11:46:33.613Z,57.70
2018-05-26T11:49:02.496Z,57.70
2018-05-26T11:51:31.416Z,57.50
2018-05-26T11:54:00.297Z,58.10
2018-05-26T11:56:29.163Z,58.00
2018-05-26T11:58:58.067Z,56.50
2018-05-26T12:01:26.971Z,56.40
2018-05-26T12:03:55.871Z,57.10
2018-05-26T12:06:25.507Z,59.80
2018-05-26T12:08:54.375Z,59.80
2018-05-26T12:11:23.275Z,58.20
2018-05-26T12:13:52.152Z,57.40
2018-05-26T12:16:21.027Z,57.80
2018-05-26T12:18:49.938Z,58.40
2018-05-26T12:21:19.579Z,59.00
2018-05-26T12:23:48.468Z,59.00
2018-05-26T12:26:17.387Z,58.10
2018-05-26T12:28:46.255Z,57.90
2018-05-26T12:31:15.900Z,58.10
2018-05-26T12:33:44.799Z,58.10
2018-05-26T12:36:13.673Z,58.20
2018-05-26T12:38:43.359Z,56.70
2018-05-26T12:41:12.238Z,56.70
2018-05-26T12:43:41.137Z,57.80
2018-05-26T12:46:10.787Z,59.30
2018-05-26T12:48:39.685Z,59.20
2018-05-26T12:51:08.587Z,58.20
2018-05-26T12:53:37.481Z,60.20
2018-05-26T12:56:06.377Z,60.50
2018-05-26T12:58:35.289Z,60.20
2018-05-26T13:01:04.191Z,58.70
2018-05-26T13:03:33.060Z,56.90
2018-05-26T13:06:01.985Z,58.00
2018-05-26T13:08:30.872Z,59.20
2018-05-26T13:10:59.751Z,58.10
2018-05-26T13:13:28.657Z,58.70
2018-05-26T13:15:58.304Z,58.10
2018-05-26T13:18:27.221Z,58.00
2018-05-26T13:20:56.869Z,55.80
2018-05-26T13:23:25.770Z,55.80
2018-05-26T13:25:54.666Z,56.00
2018-05-26T13:28:24.347Z,57.70
2018-05-26T13:30:53.979Z,55.40
2018-05-26T13:33:22.852Z,55.40
2018-05-26T13:35:51.739Z,56.90
2018-05-26T13:38:20.630Z,56.10
2018-05-26T13:40:49.535Z,56.50
2018-05-26T13:43:19.188Z,56.30
2018-05-26T13:45:48.069Z,56.10
2018-05-26T13:48:16.965Z,56.60
2018-05-26T13:50:45.934Z,56.60
2018-05-26T13:53:15.557Z,55.50
2018-05-26T13:55:45.282Z,55.80
2018-05-26T13:58:14.880Z,55.50
2018-05-26T14:00:43.759Z,55.30
2018-05-26T14:03:12.669Z,56.70
2018-05-26T14:05:41.539Z,57.70
2018-05-26T14:08:10.408Z,56.90
2018-05-26T14:10:39.307Z,57.70
2018-05-26T14:13:08.968Z,54.80
2018-05-26T14:15:37.851Z,54.80
2018-05-26T14:18:06.725Z,56.50
2018-05-26T14:20:35.616Z,54.50
2018-05-26T14:23:04.503Z,55.40
2018-05-26T14:25:33.396Z,55.60
2018-05-26T14:28:02.383Z,57.30
2018-05-26T14:30:31.289Z,55.20
2018-05-26T14:33:00.184Z,56.80
2018-05-26T14:35:29.054Z,54.20
2018-05-26T14:37:57.966Z,54.20
2018-05-26T14:40:26.842Z,54.20
2018-05-26T14:42:55.710Z,54.20
2018-05-26T14:45:25.375Z,53.30
2018-05-26T14:47:54.272Z,53.30
2018-05-26T14:50:23.936Z,55.40
2018-05-26T14:52:52.833Z,55.40
2018-05-26T14:55:22.475Z,56.20
2018-05-26T14:57:51.395Z,56.20
2018-05-26T15:00:20.276Z,55.00
2018-05-26T15:02:49.912Z,54.90
2018-05-26T15:05:18.815Z,54.90
2018-05-26T15:07:47.688Z,55.50
2018-05-26T15:10:16.604Z,54.90
2018-05-26T15:12:46.268Z,53.90
2018-05-26T15:15:15.143Z,53.90
2018-05-26T15:17:44.036Z,54.40
2018-05-26T15:20:13.682Z,55.90
2018-05-26T15:22:42.587Z,55.90
2018-05-26T15:25:12.270Z,53.90
2018-05-26T15:27:41.143Z,53.90
2018-05-26T15:30:10.036Z,55.20
2018-05-26T15:32:38.928Z,54.20
2018-05-26T15:35:08.592Z,54.50
2018-05-26T15:37:37.467Z,54.50
2018-05-26T15:40:06.376Z,53.90
2018-05-26T15:42:35.248Z,54.90
2018-05-26T15:45:04.959Z,57.30
2018-05-26T15:47:33.885Z,57.30
2018-05-26T15:50:02.752Z,56.70
2018-05-26T15:52:31.630Z,56.80
2018-05-26T15:55:02.039Z,57.40
2018-05-26T15:57:30.915Z,56.70
2018-05-26T15:59:59.857Z,57.30
2018-05-26T16:02:29.488Z,57.00
2018-05-26T16:04:58.379Z,56.90
2018-05-26T16:07:28.080Z,59.00
2018-05-26T16:09:57.723Z,59.00
2018-05-26T16:12:26.641Z,58.90
2018-05-26T16:14:55.508Z,59.40
2018-05-26T16:17:24.375Z,59.10
2018-05-26T16:19:53.271Z,60.00
2018-05-26T16:22:22.913Z,59.50
2018-05-26T16:24:51.815Z,59.40
2018-05-26T16:27:20.696Z,60.90
2018-05-26T16:29:49.587Z,59.80
2018-05-26T16:32:19.250Z,61.00
2018-05-26T16:34:48.116Z,61.00
2018-05-26T16:37:17.028Z,61.40
2018-05-26T16:39:46.667Z,62.20
2018-05-26T16:42:15.538Z,62.10
2018-05-26T16:44:44.427Z,60.20
2018-05-26T16:47:13.341Z,60.70
2018-05-26T16:49:42.255Z,60.80
2018-05-26T16:52:11.128Z,61.90
2018-05-26T16:54:40.000Z,61.90
2018-05-26T16:57:08.888Z,61.80
2018-05-26T16:59:37.756Z,63.20
2018-05-26T17:02:06.652Z,63.00
2018-05-26T17:04:35.552Z,63.10
2018-05-26T17:07:04.452Z,62.70
2018-05-26T17:09:34.099Z,64.60
2018-05-26T17:12:02.988Z,64.70
2018-05-26T17:14:31.897Z,64.70
2018-05-26T17:17:01.551Z,65.80
2018-05-26T17:19:30.443Z,64.90
2018-05-26T17:21:59.318Z,65.30
2018-05-26T17:24:28.194Z,65.40
2018-05-26T17:26:57.868Z,66.60
2018-05-26T17:29:26.740Z,65.90
2018-05-26T17:31:55.641Z,67.00
2018-05-26T17:34:25.313Z,69.10
2018-05-26T17:36:54.191Z,68.30
2018-05-26T17:39:23.097Z,68.80
2018-05-26T17:41:52.734Z,69.80
2018-05-26T17:44:21.610Z,69.70
2018-05-26T17:46:50.564Z,69.60
2018-05-26T17:49:19.435Z,70.10
2018-05-26T17:51:48.309Z,71.10
2018-05-26T17:54:17.214Z,71.40
2018-05-26T17:56:46.084Z,72.20
2018-05-26T17:59:14.987Z,72.90
2018-05-26T18:01:43.883Z,73.50
2018-05-26T18:04:13.559Z,78.70
2018-05-26T18:06:42.447Z,78.60
2018-05-26T18:09:12.086Z,81.60
2018-05-26T18:11:40.972Z,81.60
2018-05-26T18:14:09.867Z,82.80
2018-05-26T18:16:38.743Z,84.30
2018-05-26T18:19:07.635Z,85.00
2018-05-26T18:21:37.334Z,86.40
2018-05-26T18:24:06.981Z,87.40
2018-05-26T18:26:36.137Z,87.40
2018-05-26T18:29:05.063Z,87.60
2018-05-26T18:31:33.935Z,88.70
2018-05-26T18:34:02.811Z,89.00
2018-05-26T18:36:31.711Z,89.90
2018-05-26T18:39:01.407Z,90.20
2018-05-26T18:41:30.284Z,90.20
2018-05-26T18:43:59.920Z,90.80
2018-05-26T18:46:29.595Z,90.90
2018-05-26T18:48:58.496Z,90.90
2018-05-26T18:51:28.146Z,91.40
2018-05-26T18:53:57.033Z,91.40
2018-05-26T18:56:25.938Z,91.60
2018-05-26T18:58:54.832Z,91.60
2018-05-26T19:01:23.729Z,91.80
2018-05-26T19:03:53.371Z,92.10
2018-05-26T19:06:22.267Z,92.10
2018-05-26T19:08:51.143Z,92.00
2018-05-26T19:11:20.015Z,91.90
2018-05-26T19:13:48.955Z,92.20
2018-05-26T19:16:17.831Z,92.70
2018-05-26T19:18:46.741Z,93.20
2018-05-26T19:21:15.620Z,93.40
2018-05-26T19:23:44.528Z,93.90
2018-05-26T19:26:14.196Z,94.30
2018-05-26T19:28:43.076Z,94.30
2018-05-26T19:31:11.972Z,94.50
2018-05-26T19:33:40.857Z,94.50
2018-05-26T19:36:09.748Z,94.60
2018-05-26T19:38:38.620Z,94.80
2018-05-26T19:41:07.531Z,94.70
2018-05-26T19:43:36.408Z,94.30
2018-05-26T19:46:05.304Z,94.50
2018-05-26T19:48:34.223Z,95.00
2018-05-26T19:51:03.096Z,95.20
2018-05-26T19:53:32.008Z,95.30
2018-05-26T19:56:00.932Z,95.20
2018-05-26T19:58:29.817Z,95.30
2018-05-26T20:00:58.691Z,95.30
2018-05-26T20:03:27.605Z,95.40
2018-05-26T20:05:56.478Z,95.40
2018-05-26T20:08:25.376Z,95.40
2018-05-26T20:10:54.251Z,95.50
2018-05-26T20:13:23.163Z,95.40
2018-05-26T20:15:52.047Z,95.50
2018-05-26T20:18:20.926Z,95.60
2018-05-26T20:20:49.839Z,95.80
2018-05-26T20:23:18.720Z,95.80
2018-05-26T20:25:47.591Z,95.80
2018-05-26T20:28:16.504Z,95.70
2018-05-26T20:30:45.380Z,95.70
2018-05-26T20:33:14.262Z,95.80
2018-05-26T20:35:43.158Z,95.70
2018-05-26T20:38:12.036Z,95.70
2018-05-26T20:40:40.937Z,95.80
2018-05-26T20:43:09.807Z,95.60
2018-05-26T20:45:38.703Z,95.50
2018-05-26T20:48:08.344Z,95.70
2018-05-26T20:50:37.217Z,95.60
2018-05-26T20:53:06.106Z,96.00
2018-05-26T20:55:35.770Z,96.40
2018-05-26T20:58:04.639Z,96.40
2018-05-26T21:00:33.534Z,96.50
2018-05-26T21:03:02.407Z,96.70
2018-05-26T21:05:31.299Z,96.80
2018-05-26T21:08:00.195Z,96.90
2018-05-26T21:10:29.079Z,96.80
2018-05-26T21:12:57.970Z,96.90
2018-05-26T21:15:27.643Z,97.10
2018-05-26T21:17:56.532Z,97.10
2018-05-26T21:20:26.211Z,97.10
2018-05-26T21:22:55.093Z,97.10
2018-05-26T21:25:23.970Z,97.10
2018-05-26T21:27:53.684Z,96.90
2018-05-26T21:30:22.535Z,96.90
2018-05-26T21:32:51.440Z,96.80
2018-05-26T21:35:20.320Z,96.80
2018-05-26T21:37:49.209Z,97.10
2018-05-26T21:40:18.115Z,97.20
2018-05-26T21:42:46.992Z,97.40
2018-05-26T21:45:15.907Z,97.40
2018-05-26T21:47:44.779Z,97.50
2018-05-26T21:50:13.675Z,97.40
2018-05-26T21:52:42.549Z,97.50
2018-05-26T21:55:11.444Z,97.50
2018-05-26T21:57:40.343Z,97.70
2018-05-26T22:00:09.253Z,97.70
2018-05-26T22:02:38.160Z,97.70
2018-05-26T22:05:07.045Z,97.60
2018-05-26T22:07:35.943Z,97.70
2018-05-26T22:10:04.840Z,97.70
2018-05-26T22:12:34.511Z,97.80
2018-05-26T22:15:03.396Z,97.80
2018-05-26T22:17:32.292Z,97.80
2018-05-26T22:20:01.211Z,97.50
2018-05-26T22:22:30.084Z,97.80
2018-05-26T22:24:59.847Z,97.80
2018-05-26T22:27:28.720Z,97.80
2018-05-26T22:29:57.633Z,97.90
2018-05-26T22:32:26.511Z,97.90
2018-05-26T22:34:56.151Z,98.30
2018-05-26T22:37:25.830Z,98.60
2018-05-26T22:39:55.467Z,98.60
2018-05-26T22:42:24.343Z,98.60
2018-05-26T22:44:53.239Z,98.60
2018-05-26T22:47:22.134Z,98.60
2018-05-26T22:49:51.007Z,98.80
2018-05-26T22:52:19.938Z,98.60
2018-05-26T22:54:48.807Z,98.60
2018-05-26T22:57:17.675Z,98.60
2018-05-26T22:59:46.586Z,98.70
2018-05-26T23:02:15.459Z,98.70
2018-05-26T23:04:44.331Z,98.60
2018-05-26T23:07:13.228Z,98.60
2018-05-26T23:09:42.119Z,98.60
2018-05-26T23:12:11.755Z,98.90
2018-05-26T23:14:40.644Z,98.80
2018-05-26T23:17:09.547Z,98.90
2018-05-26T23:19:38.441Z,98.90
2018-05-26T23:22:08.099Z,98.80
2018-05-26T23:24:36.967Z,98.80
2018-05-26T23:27:05.885Z,99.10
2018-05-26T23:29:35.531Z,99.10
2018-05-26T23:32:04.427Z,99.10
2018-05-26T23:34:34.103Z,99.30
2018-05-26T23:37:02.999Z,99.20
2018-05-26T23:39:31.873Z,99.20
2018-05-26T23:42:00.779Z,99.00
2018-05-26T23:44:30.423Z,99.20
2018-05-26T23:46:59.291Z,99.20
2018-05-26T23:49:28.190Z,99.20
2018-05-26T23:51:57.067Z,99.10
2018-05-26T23:54:25.955Z,99.00
2018-05-26T23:56:54.843Z,99.10
2018-05-26T23:59:24.521Z,99.20
